Time;durP1;ratioP1;P1;durP2;ratioP2;P2;SDS_P1;SDS_P2;PMS_P1;PMS_P2;Temp;Humidity;BMP_temperature;BMP_pressure;BME280_temperature;BME280_humidity;BME280_pressure;Samples;Min_cycle;Max_cycle;Signal;HPM_P1;HPM_P2
2021/07/18 00:01:00;;;;;;;12.30;11.10;;;19.00;99.90;;;;;;5084887;28;20193;-77
2021/07/18 00:03:27;;;;;;;12.97;11.63;;;19.00;99.90;;;;;;5066232;28;20226;-78
2021/07/18 00:05:54;;;;;;;12.97;11.67;;;18.90;99.90;;;;;;5083541;28;20792;-77
2021/07/18 00:08:21;;;;;;;17.10;13.53;;;19.00;99.90;;;;;;5066338;28;20197;-77
2021/07/18 00:10:48;;;;;;;15.20;13.60;;;18.90;99.90;;;;;;5083497;28;20214;-76
2021/07/18 00:13:15;;;;;;;17.33;14.03;;;18.80;99.90;;;;;;5066311;28;20225;-77
2021/07/18 00:15:42;;;;;;;15.30;13.70;;;18.80;99.90;;;;;;5066021;28;20575;-77
2021/07/18 00:18:10;;;;;;;14.43;13.00;;;18.80;99.90;;;;;;5084365;28;20218;-76
2021/07/18 00:20:37;;;;;;;15.93;13.27;;;18.80;99.90;;;;;;5065341;28;20262;-76
2021/07/18 00:23:04;;;;;;;19.20;14.87;;;18.80;99.90;;;;;;5083648;28;20194;-76
2021/07/18 00:25:32;;;;;;;15.57;14.03;;;18.80;99.90;;;;;;5084196;28;20209;-78
2021/07/18 00:27:59;;;;;;;14.67;13.27;;;18.90;99.90;;;;;;5079131;28;20283;-77
2021/07/18 00:30:26;;;;;;;16.07;13.60;;;18.90;99.90;;;;;;5081217;28;20185;-78
2021/07/18 00:32:53;;;;;;;16.53;14.10;;;18.80;99.90;;;;;;5076570;28;20650;-77
2021/07/18 00:35:22;;;;;;;17.43;14.30;;;18.80;99.90;;;;;;5084518;28;20193;-78
2021/07/18 00:37:48;;;;;;;15.33;13.37;;;18.80;99.90;;;;;;5082630;28;20255;-80
2021/07/18 00:40:15;;;;;;;15.00;13.40;;;18.80;99.90;;;;;;5069630;28;20194;-76
2021/07/18 00:42:42;;;;;;;15.50;13.80;;;18.80;99.90;;;;;;5093586;28;20193;-78
2021/07/18 00:45:11;;;;;;;14.77;13.27;;;18.70;99.90;;;;;;5075157;28;20643;-80
2021/07/18 00:47:40;;;;;;;14.50;13.00;;;18.70;99.90;;;;;;5068264;28;20199;-78
2021/07/18 00:50:10;;;;;;;15.00;13.50;;;18.70;99.90;;;;;;5067330;28;20276;-78
2021/07/18 00:52:38;;;;;;;17.13;13.60;;;18.60;99.90;;;;;;5062019;28;20228;-77
2021/07/18 00:55:06;;;;;;;15.60;14.00;;;18.50;99.90;;;;;;5081080;28;20763;-76
2021/07/18 00:57:34;;;;;;;15.10;13.60;;;18.50;99.90;;;;;;5080577;28;20245;-78
2021/07/18 01:00:01;;;;;;;15.47;12.97;;;18.40;99.90;;;;;;5064001;28;20662;-80
2021/07/18 01:02:28;;;;;;;15.23;13.30;;;18.30;99.90;;;;;;5063483;28;20202;-78
2021/07/18 01:04:55;;;;;;;14.53;12.93;;;18.20;99.90;;;;;;5066370;28;20223;-80
2021/07/18 01:07:22;;;;;;;14.33;12.93;;;18.20;99.90;;;;;;5064501;28;20254;-79
2021/07/18 01:09:50;;;;;;;13.90;12.50;;;18.10;99.90;;;;;;5078086;28;20217;-78
2021/07/18 01:12:17;;;;;;;17.20;13.33;;;18.00;99.90;;;;;;5079089;28;20220;-78
2021/07/18 01:14:43;;;;;;;14.50;12.87;;;18.00;99.90;;;;;;5064956;28;20271;-79
2021/07/18 01:17:10;;;;;;;14.23;12.80;;;17.90;99.90;;;;;;5081552;28;20201;-78
2021/07/18 01:19:39;;;;;;;13.77;12.30;;;17.80;99.90;;;;;;5064230;28;20645;-78
2021/07/18 01:22:08;;;;;;;14.70;13.10;;;17.70;99.90;;;;;;5093303;28;20188;-79
2021/07/18 01:24:35;;;;;;;14.00;12.57;;;17.70;99.90;;;;;;5066486;28;20271;-78
2021/07/18 01:27:04;;;;;;;14.43;12.93;;;17.60;99.90;;;;;;5076891;28;20212;-79
2021/07/18 01:29:33;;;;;;;14.83;13.30;;;17.60;99.90;;;;;;5084463;28;20249;-80
2021/07/18 01:32:01;;;;;;;14.97;13.13;;;17.50;99.90;;;;;;5058511;28;20200;-78
2021/07/18 01:34:28;;;;;;;15.57;13.77;;;17.40;99.90;;;;;;5082769;28;20685;-78
2021/07/18 01:36:55;;;;;;;15.67;13.53;;;17.40;99.90;;;;;;5066071;28;20244;-79
2021/07/18 01:39:24;;;;;;;15.30;12.77;;;17.30;99.90;;;;;;5069827;28;20193;-78
2021/07/18 01:41:53;;;;;;;15.10;12.73;;;17.30;99.90;;;;;;5066140;28;20210;-78
2021/07/18 01:44:19;;;;;;;14.43;12.43;;;17.30;99.90;;;;;;5084650;28;20216;-78
2021/07/18 01:46:47;;;;;;;16.83;13.60;;;17.20;99.90;;;;;;5081903;28;20242;-78
2021/07/18 01:49:14;;;;;;;14.07;12.67;;;17.20;99.90;;;;;;5064675;28;20197;-78
2021/07/18 01:51:41;;;;;;;16.30;14.60;;;17.10;99.90;;;;;;5065535;28;20216;-79
2021/07/18 01:54:10;;;;;;;17.37;13.37;;;17.10;99.90;;;;;;5084446;28;20210;-79
2021/07/18 01:56:40;;;;;;;15.83;13.47;;;17.00;99.90;;;;;;5065737;28;20192;-80
2021/07/18 01:59:07;;;;;;;16.37;14.60;;;17.00;99.90;;;;;;5083881;28;20185;-80
2021/07/18 02:01:35;;;;;;;17.23;14.40;;;16.90;99.90;;;;;;5065598;28;20287;-78
2021/07/18 02:04:02;;;;;;;15.37;13.77;;;16.90;99.90;;;;;;5083801;28;20255;-78
2021/07/18 02:06:30;;;;;;;15.33;13.73;;;16.80;99.90;;;;;;5084130;28;20198;-79
2021/07/18 02:08:59;;;;;;;15.27;13.10;;;16.80;99.90;;;;;;5081626;28;20210;-78
2021/07/18 02:11:27;;;;;;;14.30;12.80;;;16.80;99.90;;;;;;5066126;28;20197;-80
2021/07/18 02:13:56;;;;;;;18.70;13.97;;;16.70;99.90;;;;;;5080540;28;20789;-78
2021/07/18 02:16:24;;;;;;;15.50;12.83;;;16.60;99.90;;;;;;5085847;28;20640;-78
2021/07/18 02:18:51;;;;;;;15.77;13.50;;;16.60;99.90;;;;;;5080811;28;20481;-78
2021/07/18 02:21:20;;;;;;;16.70;14.90;;;16.50;99.90;;;;;;5067913;28;20198;-78
2021/07/18 02:23:47;;;;;;;17.90;13.37;;;16.50;99.90;;;;;;5081828;28;20213;-78
2021/07/18 02:26:15;;;;;;;14.83;12.80;;;16.50;99.90;;;;;;5080193;28;20251;-78
2021/07/18 02:28:42;;;;;;;15.33;12.80;;;16.40;99.90;;;;;;5063920;28;20319;-78
2021/07/18 02:31:10;;;;;;;16.33;13.80;;;16.40;99.90;;;;;;5064994;28;20651;-78
2021/07/18 02:33:37;;;;;;;16.37;13.40;;;16.40;99.90;;;;;;5072124;28;20225;-78
2021/07/18 02:36:04;;;;;;;15.10;13.50;;;16.30;99.90;;;;;;5065570;28;20622;-79
2021/07/18 02:38:31;;;;;;;15.83;13.30;;;16.30;99.90;;;;;;5083368;28;20225;-78
2021/07/18 02:40:59;;;;;;;17.50;13.87;;;16.30;99.90;;;;;;5091662;28;20192;-79
2021/07/18 02:43:26;;;;;;;14.47;12.67;;;16.30;99.90;;;;;;5064769;28;20230;-78
2021/07/18 02:45:52;;;;;;;15.43;13.07;;;16.30;99.90;;;;;;5068335;28;20202;-79
2021/07/18 02:48:21;;;;;;;19.23;17.47;;;16.20;99.90;;;;;;5068717;28;20261;-78
2021/07/18 02:50:48;;;;;;;21.20;19.27;;;16.20;99.90;;;;;;5067991;28;20198;-78
2021/07/18 02:53:15;;;;;;;21.30;19.57;;;16.10;99.90;;;;;;5088809;28;20284;-78
2021/07/18 02:55:43;;;;;;;21.57;19.77;;;16.10;99.90;;;;;;5072488;28;20195;-79
2021/07/18 02:58:10;;;;;;;21.67;19.83;;;16.10;99.90;;;;;;5060611;28;20198;-79
2021/07/18 03:00:37;;;;;;;21.80;19.80;;;16.00;99.90;;;;;;5074479;28;20195;-79
2021/07/18 03:03:05;;;;;;;18.37;16.50;;;15.90;99.90;;;;;;5056666;28;20197;-78
2021/07/18 03:05:33;;;;;;;12.83;11.50;;;15.90;99.90;;;;;;5065699;28;20297;-79
2021/07/18 03:08:00;;;;;;;14.13;12.13;;;15.90;99.90;;;;;;5045338;28;20353;-78
2021/07/18 03:10:27;;;;;;;11.93;10.67;;;15.90;99.90;;;;;;5066791;28;20198;-79
2021/07/18 03:12:54;;;;;;;14.37;11.37;;;15.80;99.90;;;;;;5082679;28;20193;-78
2021/07/18 03:15:21;;;;;;;13.10;11.77;;;15.70;99.90;;;;;;5081496;28;20194;-78
2021/07/18 03:17:48;;;;;;;13.93;12.40;;;15.70;99.90;;;;;;5087285;28;20237;-78
2021/07/18 03:20:17;;;;;;;14.07;12.03;;;15.70;99.90;;;;;;5069243;28;20194;-78
2021/07/18 03:22:47;;;;;;;13.50;11.20;;;15.60;99.90;;;;;;5083136;28;20658;-79
2021/07/18 03:25:15;;;;;;;16.03;11.83;;;15.50;99.90;;;;;;5084705;28;20208;-79
2021/07/18 03:27:43;;;;;;;13.63;12.13;;;15.50;99.90;;;;;;5084047;28;20228;-80
2021/07/18 03:30:13;;;;;;;14.83;13.33;;;15.40;99.90;;;;;;5086444;28;20186;-80
2021/07/18 03:32:40;;;;;;;14.73;13.23;;;15.40;99.90;;;;;;5066237;28;20198;-79
2021/07/18 03:35:08;;;;;;;14.90;13.23;;;15.30;99.90;;;;;;5087545;28;20265;-78
2021/07/18 03:37:36;;;;;;;14.90;13.40;;;15.40;99.90;;;;;;5041065;28;20195;-79
2021/07/18 03:40:05;;;;;;;15.50;13.90;;;15.30;99.90;;;;;;5038437;28;20291;-78
2021/07/18 03:42:32;;;;;;;15.03;13.53;;;15.30;99.90;;;;;;5060490;28;20238;-79
2021/07/18 03:44:59;;;;;;;16.07;13.33;;;15.30;99.90;;;;;;5064320;28;20238;-80
2021/07/18 03:47:26;;;;;;;16.33;13.17;;;15.30;99.90;;;;;;5039399;28;20229;-79
2021/07/18 03:49:52;;;;;;;14.53;13.03;;;15.20;99.90;;;;;;5038434;28;20194;-79
2021/07/18 03:52:19;;;;;;;14.90;13.30;;;15.20;99.90;;;;;;5038021;28;20660;-80
2021/07/18 03:54:46;;;;;;;12.93;11.07;;;15.30;99.90;;;;;;5044399;28;20207;-79
2021/07/18 03:57:14;;;;;;;12.33;11.03;;;15.30;99.90;;;;;;5051799;28;20550;-78
2021/07/18 03:59:41;;;;;;;16.30;11.33;;;15.30;99.90;;;;;;5073871;28;20183;-78
2021/07/18 04:02:08;;;;;;;14.13;12.70;;;15.30;99.90;;;;;;5079883;28;20186;-81
2021/07/18 04:04:35;;;;;;;13.60;12.30;;;15.30;99.90;;;;;;5068268;28;20210;-79
2021/07/18 04:07:02;;;;;;;13.70;12.23;;;15.20;99.90;;;;;;5068466;28;20259;-79
2021/07/18 04:09:29;;;;;;;13.73;12.53;;;15.30;99.90;;;;;;5064721;28;20198;-79
2021/07/18 04:11:56;;;;;;;14.13;12.77;;;15.30;99.90;;;;;;5087117;28;20198;-79
2021/07/18 04:14:24;;;;;;;14.43;13.13;;;15.20;99.90;;;;;;5097114;22;20215;-81
2021/07/18 04:16:51;;;;;;;13.87;12.47;;;15.20;99.90;;;;;;5070659;28;20202;-80
2021/07/18 04:19:18;;;;;;;13.97;12.63;;;15.30;99.90;;;;;;5064670;28;20191;-78
2021/07/18 04:21:44;;;;;;;13.80;12.43;;;15.30;99.90;;;;;;5075881;28;20195;-78
2021/07/18 04:24:11;;;;;;;14.80;13.30;;;15.30;99.90;;;;;;5061566;28;20215;-79
2021/07/18 04:26:38;;;;;;;14.20;12.70;;;15.30;99.90;;;;;;5066924;28;20223;-80
2021/07/18 04:29:05;;;;;;;14.83;13.43;;;15.30;99.90;;;;;;5068810;28;20638;-79
2021/07/18 04:31:33;;;;;;;14.37;12.53;;;15.40;99.90;;;;;;5058847;28;20262;-79
2021/07/18 04:34:00;;;;;;;13.83;12.50;;;15.40;99.90;;;;;;5051132;28;20211;-82
2021/07/18 04:36:27;;;;;;;16.27;12.83;;;15.50;99.90;;;;;;5059787;28;20203;-78
2021/07/18 04:38:53;;;;;;;13.37;12.13;;;15.60;99.90;;;;;;5080827;28;20202;-77
2021/07/18 04:41:21;;;;;;;12.60;11.40;;;15.60;99.90;;;;;;5065377;28;20194;-78
2021/07/18 04:43:48;;;;;;;12.33;11.23;;;15.70;99.90;;;;;;5075034;28;20220;-78
2021/07/18 04:46:15;;;;;;;13.07;11.77;;;15.70;99.90;;;;;;5074917;28;20210;-79
2021/07/18 04:48:43;;;;;;;13.37;12.10;;;15.90;99.90;;;;;;5075337;28;20194;-78
2021/07/18 04:51:10;;;;;;;12.47;11.47;;;16.00;99.90;;;;;;5073582;28;20551;-78
2021/07/18 04:53:36;;;;;;;12.57;11.47;;;16.10;99.90;;;;;;5070778;28;20226;-78
2021/07/18 04:56:03;;;;;;;11.60;10.60;;;16.20;99.90;;;;;;5077770;28;20190;-77
2021/07/18 04:58:30;;;;;;;11.90;10.50;;;16.40;99.90;;;;;;5092423;28;20202;-78
2021/07/18 05:00:57;;;;;;;12.47;11.47;;;16.60;99.90;;;;;;5064487;28;20199;-78
2021/07/18 05:03:24;;;;;;;13.43;12.23;;;16.80;99.90;;;;;;5085031;28;20554;-78
2021/07/18 05:05:52;;;;;;;12.73;11.73;;;16.90;99.90;;;;;;5073785;28;20201;-77
2021/07/18 05:08:19;;;;;;;12.27;11.27;;;17.00;99.90;;;;;;5071632;28;20215;-79
2021/07/18 05:10:46;;;;;;;12.73;11.73;;;17.20;99.90;;;;;;5077104;28;20199;-78
2021/07/18 05:13:12;;;;;;;12.53;11.40;;;17.30;99.90;;;;;;5074973;28;20194;-77
2021/07/18 05:15:39;;;;;;;13.67;12.43;;;17.40;99.90;;;;;;5076297;28;20222;-78
2021/07/18 05:18:11;;;;;;;13.13;11.93;;;17.50;99.90;;;;;;5072048;28;20204;-78
2021/07/18 05:20:39;;;;;;;12.10;11.20;;;17.60;99.90;;;;;;5072248;28;20263;-77
2021/07/18 05:23:08;;;;;;;7.47;6.70;;;17.70;99.90;;;;;;5075711;28;20193;-77
2021/07/18 05:25:35;;;;;;;12.40;11.50;;;17.90;99.90;;;;;;5073348;28;20216;-78
2021/07/18 05:28:02;;;;;;;15.10;13.87;;;18.10;99.90;;;;;;5073019;28;20208;-78
2021/07/18 05:30:29;;;;;;;14.20;13.27;;;18.30;99.90;;;;;;5077659;28;20198;-78
2021/07/18 05:32:56;;;;;;;14.50;13.50;;;18.50;99.90;;;;;;5082531;28;20198;-78
2021/07/18 05:35:24;;;;;;;14.17;12.90;;;18.60;99.90;;;;;;5074163;28;20233;-78
2021/07/18 05:37:51;;;;;;;15.43;14.40;;;18.80;99.90;;;;;;5076090;28;20198;-78
2021/07/18 05:40:20;;;;;;;13.70;12.80;;;18.80;99.90;;;;;;5075211;28;20190;-78
2021/07/18 05:42:47;;;;;;;13.33;12.43;;;18.90;99.90;;;;;;5074529;28;20191;-78
2021/07/18 05:45:15;;;;;;;14.63;13.53;;;19.00;99.90;;;;;;5075061;28;20215;-78
2021/07/18 05:47:42;;;;;;;10.40;9.60;;;19.30;99.90;;;;;;5079393;28;20202;-78
2021/07/18 05:50:10;;;;;;;13.77;12.87;;;19.60;99.90;;;;;;5079736;28;20623;-77
2021/07/18 05:52:37;;;;;;;7.47;5.77;;;20.10;99.90;;;;;;5078303;28;20218;-78
2021/07/18 05:55:05;;;;;;;9.07;8.23;;;20.80;99.90;;;;;;5078051;28;20215;-78
2021/07/18 05:57:34;;;;;;;12.37;11.37;;;21.40;99.90;;;;;;5080687;28;20213;-78
2021/07/18 06:00:02;;;;;;;9.10;8.17;;;21.80;99.90;;;;;;5083772;28;20246;-78
2021/07/18 06:02:37;;;;;;;12.43;11.40;;;22.20;99.90;;;;;;5077583;28;20228;-78
2021/07/18 06:05:04;;;;;;;13.40;12.13;;;22.40;99.90;;;;;;5079004;28;20213;-77
2021/07/18 06:07:31;;;;;;;9.60;8.80;;;22.70;99.90;;;;;;5078510;28;20215;-79
2021/07/18 06:09:58;;;;;;;12.40;11.40;;;23.10;99.90;;;;;;5085817;28;20246;-77
2021/07/18 06:12:24;;;;;;;12.10;11.37;;;23.20;99.90;;;;;;5088327;28;20199;-78
2021/07/18 06:14:53;;;;;;;13.30;12.30;;;23.30;99.90;;;;;;5084561;28;20234;-79
2021/07/18 06:17:19;;;;;;;12.77;11.77;;;23.30;99.90;;;;;;5088148;28;20196;-78
2021/07/18 06:19:46;;;;;;;13.03;12.17;;;23.40;99.90;;;;;;5071386;28;20187;-79
2021/07/18 06:22:13;;;;;;;13.73;12.50;;;23.20;99.90;;;;;;5055974;28;20242;-82
2021/07/18 06:24:40;;;;;;;13.80;12.80;;;23.00;99.90;;;;;;5071629;28;20223;-82
2021/07/18 06:27:08;;;;;;;11.23;10.30;;;22.80;99.90;;;;;;5066198;28;20272;-82
2021/07/18 06:29:35;;;;;;;7.53;5.77;;;22.80;99.90;;;;;;5070000;28;20616;-79
2021/07/18 06:32:04;;;;;;;6.80;5.40;;;22.90;99.90;;;;;;5081690;28;20194;-82
2021/07/18 06:34:31;;;;;;;6.13;4.50;;;23.10;99.90;;;;;;5064088;28;20222;-82
2021/07/18 06:36:58;;;;;;;5.27;4.23;;;23.20;99.90;;;;;;5054763;28;20192;-82
2021/07/18 06:39:25;;;;;;;6.33;4.87;;;23.50;99.90;;;;;;5054023;28;20195;-81
2021/07/18 06:41:51;;;;;;;7.00;4.80;;;23.70;99.90;;;;;;5080301;28;20216;-80
2021/07/18 06:44:18;;;;;;;5.53;4.33;;;24.00;99.90;;;;;;5059849;28;20222;-81
2021/07/18 06:46:45;;;;;;;8.60;7.83;;;24.10;99.90;;;;;;5056408;28;20288;-80
2021/07/18 06:49:13;;;;;;;12.93;11.93;;;24.30;99.90;;;;;;5059410;28;20539;-80
2021/07/18 06:51:40;;;;;;;12.50;11.60;;;24.50;99.90;;;;;;5067205;28;20191;-80
2021/07/18 06:54:07;;;;;;;8.73;7.93;;;24.60;99.90;;;;;;5066525;28;20288;-80
2021/07/18 06:56:34;;;;;;;14.60;13.13;;;24.50;99.90;;;;;;5062544;28;20199;-80
2021/07/18 06:59:01;;;;;;;10.10;9.40;;;24.50;99.90;;;;;;5069946;28;20229;-80
2021/07/18 07:01:28;;;;;;;11.17;10.03;;;24.60;99.90;;;;;;5070135;28;20209;-79
2021/07/18 07:03:55;;;;;;;10.67;9.93;;;24.80;99.90;;;;;;5071221;28;20217;-80
2021/07/18 07:06:23;;;;;;;14.80;13.70;;;25.00;99.90;;;;;;5066412;28;20202;-80
2021/07/18 07:08:52;;;;;;;11.10;10.40;;;25.00;99.90;;;;;;5071706;28;20223;-79
2021/07/18 07:11:20;;;;;;;10.93;10.23;;;25.00;99.90;;;;;;5067345;28;20191;-78
2021/07/18 07:13:47;;;;;;;11.30;10.40;;;24.90;99.90;;;;;;5086587;28;20214;-78
2021/07/18 07:16:14;;;;;;;10.90;10.00;;;25.00;99.90;;;;;;5075537;28;20206;-80
2021/07/18 07:18:41;;;;;;;10.77;9.87;;;24.80;99.90;;;;;;5070995;28;20190;-80
2021/07/18 07:21:09;;;;;;;11.00;10.13;;;24.80;99.90;;;;;;5058359;28;20289;-81
2021/07/18 07:23:37;;;;;;;10.83;9.90;;;25.10;99.90;;;;;;5066551;28;20221;-81
2021/07/18 07:26:04;;;;;;;10.80;10.00;;;25.20;99.90;;;;;;5063917;28;20190;-81
2021/07/18 07:28:31;;;;;;;11.37;10.37;;;25.40;99.90;;;;;;5068118;28;20698;-82
2021/07/18 07:30:58;;;;;;;10.27;9.57;;;25.30;99.90;;;;;;5067728;28;20194;-82
2021/07/18 07:33:25;;;;;;;10.67;9.77;;;25.50;99.90;;;;;;5064681;28;20210;-82
2021/07/18 07:35:52;;;;;;;10.20;9.50;;;25.50;99.90;;;;;;5069405;28;20230;-82
2021/07/18 07:38:19;;;;;;;10.33;9.53;;;25.70;99.90;;;;;;5070058;28;20194;-81
2021/07/18 07:40:48;;;;;;;10.30;9.40;;;25.60;99.90;;;;;;5067614;28;20214;-81
2021/07/18 07:43:14;;;;;;;10.27;9.50;;;25.80;99.90;;;;;;5061217;28;20253;-81
2021/07/18 07:45:41;;;;;;;9.90;9.20;;;25.90;99.90;;;;;;5070604;28;20209;-81
2021/07/18 07:48:08;;;;;;;10.00;9.30;;;25.20;99.90;;;;;;5059159;28;20211;-81
2021/07/18 07:50:35;;;;;;;9.93;9.33;;;25.10;99.90;;;;;;5067969;28;20195;-82
2021/07/18 07:53:02;;;;;;;10.00;9.30;;;25.10;99.90;;;;;;5066211;28;20195;-81
2021/07/18 07:55:30;;;;;;;9.60;8.90;;;25.60;99.90;;;;;;5077610;28;20283;-81
2021/07/18 07:57:58;;;;;;;9.50;8.80;;;25.70;99.90;;;;;;5065733;28;20286;-81
2021/07/18 08:00:26;;;;;;;9.60;8.90;;;25.80;99.90;;;;;;5064254;28;20194;-82
2021/07/18 08:02:53;;;;;;;9.17;8.57;;;26.10;99.90;;;;;;5067265;28;20202;-82
2021/07/18 08:05:21;;;;;;;9.77;9.17;;;26.10;99.90;;;;;;5068286;28;20266;-81
2021/07/18 08:07:49;;;;;;;10.33;9.43;;;26.20;99.90;;;;;;5046369;28;20211;-81
2021/07/18 08:10:18;;;;;;;10.30;9.43;;;26.10;99.90;;;;;;5053288;28;20196;-81
2021/07/18 08:12:47;;;;;;;9.87;9.17;;;26.00;99.90;;;;;;5063051;28;20268;-80
2021/07/18 08:15:18;;;;;;;9.73;9.10;;;26.40;99.90;;;;;;5048095;28;20214;-82
2021/07/18 08:17:45;;;;;;;10.87;10.00;;;26.50;99.90;;;;;;5055099;28;20670;-80
2021/07/18 08:20:15;;;;;;;10.63;9.83;;;26.10;99.90;;;;;;5063829;28;20198;-81
2021/07/18 08:22:45;;;;;;;10.33;9.53;;;25.80;99.90;;;;;;5070967;28;20195;-81
2021/07/18 08:25:14;;;;;;;9.97;9.10;;;25.70;99.90;;;;;;5076459;28;20228;-80
2021/07/18 08:27:41;;;;;;;10.83;9.40;;;26.00;99.90;;;;;;5076636;28;20274;-82
2021/07/18 08:30:09;;;;;;;10.40;9.40;;;25.90;99.90;;;;;;5073581;28;20187;-79
2021/07/18 08:32:39;;;;;;;9.87;9.10;;;26.20;99.90;;;;;;5086345;28;20229;-81
2021/07/18 08:35:07;;;;;;;10.60;9.57;;;26.40;99.90;;;;;;5071096;28;20570;-80
2021/07/18 08:37:34;;;;;;;9.83;9.10;;;26.70;99.90;;;;;;5066721;28;20202;-81
2021/07/18 08:40:02;;;;;;;9.67;9.07;;;26.90;99.90;;;;;;5083082;28;20194;-81
2021/07/18 08:42:30;;;;;;;9.60;8.80;;;27.00;99.90;;;;;;5053897;28;20307;-81
2021/07/18 08:44:58;;;;;;;9.70;8.87;;;27.00;99.90;;;;;;5050841;28;20246;-80
2021/07/18 08:47:26;;;;;;;10.00;9.10;;;26.70;99.90;;;;;;5054081;28;20191;-81
2021/07/18 08:49:54;;;;;;;10.13;9.30;;;26.70;99.90;;;;;;5072685;28;20195;-80
2021/07/18 08:52:22;;;;;;;9.37;8.77;;;26.60;99.90;;;;;;5052039;28;20220;-80
2021/07/18 08:54:50;;;;;;;9.67;8.90;;;27.10;99.90;;;;;;5059523;28;20226;-80
2021/07/18 08:57:19;;;;;;;9.97;9.17;;;27.30;99.90;;;;;;5050256;28;20283;-80
2021/07/18 08:59:47;;;;;;;9.40;8.80;;;27.40;99.90;;;;;;5088803;28;20204;-80
2021/07/18 09:02:14;;;;;;;9.60;9.00;;;27.60;99.90;;;;;;5063145;28;20189;-79
2021/07/18 09:04:41;;;;;;;10.97;10.10;;;27.70;99.90;;;;;;5065069;28;20219;-80
2021/07/18 09:07:11;;;;;;;10.20;9.27;;;27.70;99.90;;;;;;5063974;28;20197;-80
2021/07/18 09:09:38;;;;;;;10.10;9.40;;;27.70;99.90;;;;;;5064733;28;20682;-79
2021/07/18 09:12:07;;;;;;;9.70;8.90;;;27.80;99.90;;;;;;5068416;28;20202;-80
2021/07/18 09:14:36;;;;;;;10.50;9.80;;;27.50;99.90;;;;;;5056900;28;20227;-80
2021/07/18 09:17:05;;;;;;;10.30;9.60;;;27.40;99.90;;;;;;5066089;28;20530;-80
2021/07/18 09:19:35;;;;;;;10.43;9.60;;;27.40;99.90;;;;;;5056855;28;20199;-80
2021/07/18 09:22:17;;;;;;;9.97;9.17;;;27.10;99.90;;;;;;5067477;28;20269;-80
2021/07/18 09:24:47;;;;;;;9.80;9.10;;;27.40;99.90;;;;;;5060232;28;20713;-80
2021/07/18 09:27:19;;;;;;;9.73;8.93;;;27.20;99.90;;;;;;5064160;28;20254;-80
2021/07/18 09:29:48;;;;;;;10.00;9.20;;;26.80;99.90;;;;;;5063893;28;20226;-80
2021/07/18 09:32:18;;;;;;;9.70;8.90;;;26.90;99.90;;;;;;5052543;28;20245;-80
2021/07/18 09:34:47;;;;;;;9.77;8.87;;;27.10;99.90;;;;;;5067304;28;20218;-79
2021/07/18 09:37:18;;;;;;;9.43;8.70;;;27.20;99.90;;;;;;5064067;28;20785;-82
2021/07/18 09:39:52;;;;;;;9.73;8.97;;;27.30;99.90;;;;;;5068491;28;20190;-79
2021/07/18 09:42:34;;;;;;;9.77;9.10;;;27.20;99.90;;;;;;5063935;28;20186;-80
2021/07/18 09:45:02;;;;;;;9.57;8.87;;;27.40;99.90;;;;;;5063817;28;20211;-80
2021/07/18 09:47:28;;;;;;;9.50;8.80;;;27.50;99.90;;;;;;5067096;28;20198;-80
2021/07/18 09:49:55;;;;;;;10.10;9.30;;;27.50;99.90;;;;;;5066626;28;20673;-80
2021/07/18 09:52:26;;;;;;;9.80;8.90;;;27.50;99.90;;;;;;5067139;28;20583;-80
2021/07/18 09:54:54;;;;;;;10.17;9.33;;;27.60;99.90;;;;;;5067185;28;20213;-79
2021/07/18 09:57:34;;;;;;;10.77;9.77;;;27.50;99.90;;;;;;5074509;28;20194;-80
2021/07/18 10:00:01;;;;;;;9.90;9.10;;;27.70;99.90;;;;;;5073138;28;20248;-79
2021/07/18 10:02:29;;;;;;;9.47;8.57;;;27.50;99.90;;;;;;5058459;28;20202;-80
2021/07/18 10:04:56;;;;;;;9.37;8.67;;;27.70;99.90;;;;;;5076788;28;20209;-80
2021/07/18 10:07:31;;;;;;;9.90;9.10;;;27.80;99.90;;;;;;5056554;28;20681;-80
2021/07/18 10:09:58;;;;;;;10.40;9.50;;;27.60;99.90;;;;;;5058050;28;20304;-80
2021/07/18 10:12:25;;;;;;;10.80;9.80;;;27.80;99.90;;;;;;5057718;28;20199;-79
2021/07/18 10:14:53;;;;;;;10.80;10.00;;;28.10;99.90;;;;;;5076821;22;20258;-79
2021/07/18 10:17:22;;;;;;;10.70;9.80;;;27.70;99.90;;;;;;5038924;28;20241;-79
2021/07/18 10:19:49;;;;;;;10.13;9.23;;;27.40;99.90;;;;;;5035986;28;20239;-79
2021/07/18 10:22:16;;;;;;;9.77;8.90;;;27.30;99.90;;;;;;5043221;28;20679;-79
2021/07/18 10:24:51;;;;;;;9.50;8.80;;;27.40;99.90;;;;;;5043749;28;20223;-76
2021/07/18 11:00:22;;;;;;;9.03;8.43;;;25.80;99.90;;;;;;4970789;28;20292;-79
2021/07/18 11:03:03;;;;;;;12.13;10.70;;;25.80;99.90;;;;;;5043075;28;20200;-80
2021/07/18 11:05:39;;;;;;;25.03;13.20;;;26.00;99.90;;;;;;5047772;28;20241;-79
2021/07/18 11:08:06;;;;;;;12.50;10.70;;;25.80;99.90;;;;;;5033642;28;20650;-78
2021/07/18 11:11:00;;;;;;;9.50;8.57;;;26.00;99.90;;;;;;5051922;28;20586;-80
2021/07/18 11:14:18;;;;;;;;;;;;;;;;;;;;;
2021/07/18 11:20:04;;;;;;;8.33;7.73;;;26.00;99.90;;;;;;5033538;28;20193;-78
2021/07/18 11:22:58;;;;;;;9.53;8.60;;;25.80;99.90;;;;;;5041226;28;20202;-78
2021/07/18 11:25:48;;;;;;;10.33;8.37;;;25.70;99.90;;;;;;5031694;28;20219;-79
2021/07/18 11:29:02;;;;;;;8.57;7.90;;;25.60;99.90;;;;;;5035798;28;20194;-79
2021/07/18 11:31:46;;;;;;;8.97;8.00;;;25.50;99.90;;;;;;5003553;28;20200;-78
2021/07/18 11:34:19;;;;;;;10.90;8.57;;;25.50;99.90;;;;;;5040792;28;20207;-79
2021/07/18 11:37:01;;;;;;;8.70;8.00;;;25.50;99.90;;;;;;5042765;28;20670;-80
2021/07/18 11:39:28;;;;;;;8.20;7.60;;;25.40;99.90;;;;;;5038215;28;20562;-78
2021/07/18 11:41:56;;;;;;;9.20;8.30;;;25.40;99.90;;;;;;5038004;28;20226;-79
2021/07/18 11:44:28;;;;;;;9.17;8.47;;;25.70;99.90;;;;;;5043507;28;20620;-80
2021/07/18 11:47:00;;;;;;;9.57;8.87;;;25.70;99.90;;;;;;5033914;28;20211;-79
2021/07/18 11:49:30;;;;;;;9.60;8.80;;;25.70;99.90;;;;;;5036937;28;20201;-79
2021/07/18 11:51:57;;;;;;;11.23;10.30;;;25.80;99.90;;;;;;5040500;28;20573;-79
2021/07/18 12:12:06;;;;;;;9.40;8.70;;;25.80;99.90;;;;;;4983344;28;20201;-78
2021/07/18 12:14:37;;;;;;;8.97;8.17;;;25.60;99.90;;;;;;5051938;28;20217;-77
2021/07/18 12:17:06;;;;;;;8.77;8.07;;;25.40;99.90;;;;;;5051963;28;20205;-78
2021/07/18 12:19:34;;;;;;;8.87;8.17;;;25.50;99.90;;;;;;5053783;28;20205;-78
2021/07/18 12:22:04;;;;;;;8.80;8.17;;;25.50;99.90;;;;;;5048313;28;20209;-78
2021/07/18 12:24:33;;;;;;;9.23;8.33;;;25.70;99.90;;;;;;5051436;28;20764;-78
2021/07/18 12:27:07;;;;;;;9.40;8.50;;;25.60;99.90;;;;;;5048725;28;20642;-78
2021/07/18 12:29:35;;;;;;;8.77;8.07;;;25.60;99.90;;;;;;5066142;28;20202;-79
2021/07/18 12:32:06;;;;;;;9.00;8.20;;;25.50;99.90;;;;;;5035686;28;20202;-78
2021/07/18 12:34:57;;;;;;;8.83;8.23;;;25.70;99.90;;;;;;5038010;28;20225;-78
2021/07/18 12:37:25;;;;;;;9.03;8.33;;;25.60;99.90;;;;;;5027243;28;20804;-78
2021/07/18 12:39:59;;;;;;;8.93;8.23;;;25.40;99.90;;;;;;5020234;28;20183;-78
2021/07/18 12:42:29;;;;;;;8.87;8.10;;;25.50;99.90;;;;;;5038420;28;20261;-78
2021/07/18 12:44:58;;;;;;;8.87;8.07;;;25.20;99.90;;;;;;5037807;28;20220;-78
2021/07/18 12:47:36;;;;;;;8.70;8.10;;;25.30;99.90;;;;;;5035012;28;20191;-78
2021/07/18 12:50:15;;;;;;;8.77;7.97;;;25.30;99.90;;;;;;5028209;28;20207;-77
2021/07/18 12:53:02;;;;;;;9.07;7.90;;;25.40;99.90;;;;;;5018965;28;20199;-79
2021/07/18 12:55:35;;;;;;;9.27;8.47;;;25.40;99.90;;;;;;5035488;28;20231;-76
2021/07/18 12:58:22;;;;;;;9.10;8.40;;;25.30;99.90;;;;;;5062550;28;20271;-78
2021/07/18 13:01:00;;;;;;;8.87;8.17;;;25.40;99.90;;;;;;5060235;28;20195;-77
2021/07/18 13:03:32;;;;;;;8.70;8.00;;;25.40;99.90;;;;;;5058983;28;20197;-77
2021/07/18 13:06:07;;;;;;;9.10;8.30;;;25.30;99.90;;;;;;5056044;28;20211;-78
2021/07/18 13:08:36;;;;;;;8.77;8.07;;;25.30;99.90;;;;;;5052479;28;20191;-77
2021/07/18 13:11:05;;;;;;;8.67;7.97;;;25.30;99.90;;;;;;5060553;28;20220;-78
2021/07/18 13:13:33;;;;;;;9.57;8.27;;;25.20;99.90;;;;;;5062893;28;20241;-77
2021/07/18 13:16:01;;;;;;;9.00;8.30;;;25.20;99.90;;;;;;5035596;28;20297;-78
2021/07/18 13:18:34;;;;;;;9.00;8.30;;;25.20;99.90;;;;;;5045289;28;20201;-78
2021/07/18 13:21:11;;;;;;;8.53;7.90;;;25.20;99.90;;;;;;5036366;28;20191;-77
2021/07/18 13:23:39;;;;;;;8.90;8.20;;;25.30;99.90;;;;;;5048475;28;20198;-77
2021/07/18 13:26:09;;;;;;;10.73;9.77;;;25.30;99.90;;;;;;5034607;28;20242;-79
2021/07/18 13:28:36;;;;;;;9.57;8.67;;;25.40;99.90;;;;;;5042991;28;20701;-78
2021/07/18 13:31:02;;;;;;;9.40;8.53;;;25.40;99.90;;;;;;5034318;28;20293;-77
2021/07/18 13:33:33;;;;;;;9.67;8.53;;;25.30;99.90;;;;;;5040331;28;20206;-78
2021/07/18 13:36:07;;;;;;;8.83;7.93;;;25.30;99.90;;;;;;5054677;28;20536;-77
2021/07/18 13:38:38;;;;;;;9.17;8.37;;;25.30;99.90;;;;;;5033258;28;20289;-77